Time;durP1;ratioP1;P1;durP2;ratioP2;P2;SDS_P1;SDS_P2;PMS_P1;PMS_P2;Temp;Humidity;BMP_temperature;BMP_pressure;BME280_temperature;BME280_humidity;BME280_pressure;Samples;Min_cycle;Max_cycle;Signal;HPM_P1;HPM_P2
2022/03/23 00:01:17;;;;;;;18.42;13.48;;;;;;;7.27;50.97;100249.75;5060479;28;20068;-78
2022/03/23 00:03:43;;;;;;;19.48;14.32;;;;;;;7.31;50.98;100256.31;5047863;28;20420;-78
2022/03/23 00:06:08;;;;;;;20.15;14.27;;;;;;;7.31;51.44;100266.94;5055360;28;20029;-78
2022/03/23 00:08:34;;;;;;;22.60;15.88;;;;;;;7.20;50.75;100244.41;5057662;28;20028;-78
2022/03/23 00:10:59;;;;;;;23.55;15.02;;;;;;;7.24;51.05;100258.94;5059680;28;20032;-78
2022/03/23 00:13:25;;;;;;;22.25;13.95;;;;;;;7.21;51.48;100251.34;5060009;28;20031;-78
2022/03/23 00:15:50;;;;;;;19.65;14.07;;;;;;;7.24;51.41;100266.88;5056822;28;20037;-78
2022/03/23 00:18:15;;;;;;;22.45;15.80;;;;;;;7.22;51.49;100265.44;5052571;28;20036;-78
2022/03/23 00:20:41;;;;;;;24.75;15.65;;;;;;;7.19;51.00;100263.97;5058462;28;20120;-78
2022/03/23 00:23:09;;;;;;;26.67;16.52;;;;;;;7.07;51.21;100249.59;5040586;28;20035;-78
2022/03/23 00:25:35;;;;;;;20.80;14.98;;;;;;;7.17;51.29;100268.66;5057041;28;20047;-78
2022/03/23 00:28:01;;;;;;;20.83;14.75;;;;;;;7.11;51.89;100258.00;5060661;28;20033;-78
2022/03/23 00:30:27;;;;;;;23.80;15.18;;;;;;;7.06;51.34;100244.47;5062608;28;20029;-78
2022/03/23 00:32:52;;;;;;;22.75;15.05;;;;;;;7.08;50.98;100258.34;5059540;28;20381;-78
2022/03/23 00:35:18;;;;;;;21.50;13.85;;;;;;;7.03;51.14;100253.66;5048820;28;20116;-78
2022/03/23 00:37:43;;;;;;;22.45;15.85;;;;;;;7.05;51.43;100259.59;5062215;28;20060;-78
2022/03/23 00:40:09;;;;;;;25.40;15.40;;;;;;;6.95;51.75;100245.81;5043743;28;20025;-78
2022/03/23 00:42:35;;;;;;;23.38;15.75;;;;;;;7.01;51.14;100263.59;5063227;28;20493;-78
2022/03/23 00:45:03;;;;;;;21.23;14.77;;;;;;;6.99;51.61;100256.88;5060908;28;20024;-78
2022/03/23 00:47:29;;;;;;;27.73;16.13;;;;;;;6.92;51.12;100253.34;5085217;28;20031;-78
2022/03/23 00:49:54;;;;;;;22.52;15.15;;;;;;;6.97;51.79;100253.59;5067152;28;20025;-78
2022/03/23 00:52:19;;;;;;;22.00;15.02;;;;;;;6.90;51.24;100248.22;5064556;28;20874;-78
2022/03/23 00:54:45;;;;;;;24.27;15.75;;;;;;;6.91;52.07;100255.16;5065623;28;20068;-78
2022/03/23 00:57:10;;;;;;;22.20;15.73;;;;;;;6.89;51.43;100249.22;5044377;28;20032;-78
2022/03/23 00:59:35;;;;;;;22.70;15.77;;;;;;;6.89;51.38;100254.53;5058569;28;20537;-78
2022/03/23 01:02:02;;;;;;;21.83;15.48;;;;;;;6.85;52.17;100255.94;5050346;28;20036;-78
2022/03/23 01:04:28;;;;;;;23.45;16.13;;;;;;;6.78;51.48;100249.72;5055175;28;20480;-78
2022/03/23 01:06:54;;;;;;;26.02;16.58;;;;;;;6.75;51.91;100244.78;5026913;28;20033;-78
2022/03/23 01:09:23;;;;;;;24.60;16.17;;;;;;;6.75;52.23;100244.78;5050286;28;20032;-78
2022/03/23 01:11:50;;;;;;;22.60;14.90;;;;;;;6.77;51.50;100243.59;5049121;28;20043;-78
2022/03/23 01:14:16;;;;;;;27.80;16.67;;;;;;;6.68;52.14;100238.63;5061433;28;20032;-78
2022/03/23 01:16:42;;;;;;;20.83;15.18;;;;;;;6.69;51.91;100238.41;5059727;28;20091;-78
2022/03/23 01:19:08;;;;;;;25.42;16.77;;;;;;;6.67;52.31;100239.63;5059754;28;20478;-78
2022/03/23 01:21:33;;;;;;;22.40;14.43;;;;;;;6.69;52.21;100249.03;5043577;28;20068;-78
2022/03/23 01:23:58;;;;;;;26.23;16.00;;;;;;;6.64;52.00;100234.72;5054591;28;20072;-78
2022/03/23 01:26:23;;;;;;;22.85;14.43;;;;;;;6.59;52.05;100234.44;5061257;28;20395;-78
2022/03/23 01:28:49;;;;;;;22.17;16.02;;;;;;;6.62;52.17;100240.19;5060279;28;20067;-78
2022/03/23 01:31:14;;;;;;;21.90;15.65;;;;;;;6.53;52.27;100233.34;5061761;28;20373;-78
2022/03/23 01:33:39;;;;;;;23.98;15.95;;;;;;;6.55;52.07;100235.84;5058973;28;21245;-78
2022/03/23 01:36:05;;;;;;;25.92;17.63;;;;;;;6.51;52.37;100235.38;5048417;28;20079;-78
2022/03/23 01:38:30;;;;;;;24.48;16.70;;;;;;;6.51;52.22;100234.56;5046271;28;20051;-78
2022/03/23 01:40:55;;;;;;;19.98;14.77;;;;;;;6.52;52.24;100238.84;5066672;28;20077;-78
2022/03/23 01:43:21;;;;;;;22.90;16.27;;;;;;;6.50;51.92;100239.06;5026900;28;20032;-79
2022/03/23 01:45:46;;;;;;;22.95;15.77;;;;;;;6.47;52.25;100242.06;5066895;28;20044;-78
2022/03/23 01:48:12;;;;;;;20.85;13.75;;;;;;;6.43;51.80;100235.50;5057776;28;20537;-78
2022/03/23 01:50:37;;;;;;;24.10;16.00;;;;;;;6.41;51.97;100232.22;5027781;28;20055;-78
2022/03/23 01:53:03;;;;;;;24.83;16.48;;;;;;;6.41;52.58;100226.91;5061024;28;20059;-78
2022/03/23 01:55:28;;;;;;;26.15;15.85;;;;;;;6.44;51.88;100233.69;5066410;28;20024;-79
2022/03/23 01:57:54;;;;;;;22.05;15.57;;;;;;;6.35;52.36;100232.97;5063385;28;20023;-78
2022/03/23 02:00:20;;;;;;;27.60;16.95;;;;;;;6.40;51.99;100235.84;5038703;28;20040;-79
2022/03/23 02:02:46;;;;;;;24.92;16.25;;;;;;;6.38;52.33;100229.94;5066915;28;20036;-78
2022/03/23 02:05:13;;;;;;;24.48;16.67;;;;;;;6.31;52.39;100220.28;5062308;28;20036;-79
2022/03/23 02:07:39;;;;;;;24.95;16.52;;;;;;;6.26;52.53;100218.19;5058871;28;20484;-78
2022/03/23 02:10:06;;;;;;;21.38;15.50;;;;;;;6.33;52.05;100223.56;5064170;28;20044;-78
2022/03/23 02:12:31;;;;;;;21.48;14.68;;;;;;;6.18;51.99;100209.53;5064317;28;20078;-78
2022/03/23 02:14:58;;;;;;;20.90;15.32;;;;;;;6.27;52.14;100227.75;5067015;28;20033;-79
2022/03/23 02:17:24;;;;;;;21.27;14.88;;;;;;;6.21;52.45;100217.09;5062360;28;20115;-78
2022/03/23 02:19:49;;;;;;;24.92;15.35;;;;;;;6.16;52.70;100209.69;5074732;28;20458;-78
2022/03/23 02:22:14;;;;;;;24.05;15.93;;;;;;;6.15;52.86;100205.41;5038208;28;20028;-78
2022/03/23 02:24:40;;;;;;;20.40;14.35;;;;;;;6.20;52.68;100226.88;5067412;28;20033;-78
2022/03/23 02:27:06;;;;;;;25.25;17.13;;;;;;;6.19;52.27;100216.44;5064888;28;20056;-78
2022/03/23 02:29:32;;;;;;;24.23;15.07;;;;;;;6.12;52.40;100213.72;5061066;28;20031;-78
2022/03/23 02:31:58;;;;;;;22.48;15.45;;;;;;;6.07;52.76;100214.28;5034379;28;20391;-78
2022/03/23 02:34:25;;;;;;;21.70;15.77;;;;;;;6.11;52.85;100222.69;5056839;28;20039;-79
2022/03/23 02:36:51;;;;;;;19.95;13.98;;;;;;;6.00;52.69;100208.09;5060269;28;20058;-78
2022/03/23 02:39:16;;;;;;;23.63;15.82;;;;;;;6.10;52.52;100212.25;5061231;28;20532;-78
2022/03/23 02:41:42;;;;;;;29.02;16.25;;;;;;;6.04;52.75;100209.38;5058437;28;20090;-78
2022/03/23 02:44:08;;;;;;;24.73;15.80;;;;;;;6.02;52.06;100203.44;5031059;28;20029;-78
2022/03/23 02:46:35;;;;;;;23.15;15.77;;;;;;;6.02;52.84;100221.16;5057681;28;20032;-78
2022/03/23 02:49:02;;;;;;;23.98;15.25;;;;;;;5.98;52.45;100206.63;5050196;28;20028;-78
2022/03/23 02:51:28;;;;;;;22.95;15.55;;;;;;;5.94;52.36;100202.72;5032425;28;20029;-79
2022/03/23 03:02:32;;;;;;;24.05;16.73;;;;;;;5.82;52.56;100209.44;5060863;28;20134;-78
2022/03/23 03:04:57;;;;;;;24.27;16.38;;;;;;;5.86;53.16;100216.06;5059177;28;20560;-78
2022/03/23 03:07:22;;;;;;;26.00;16.25;;;;;;;5.80;52.78;100212.28;5056986;28;20029;-78
2022/03/23 03:09:48;;;;;;;24.63;15.85;;;;;;;5.78;52.78;100213.47;5061951;28;20032;-78
2022/03/23 03:12:13;;;;;;;23.88;16.35;;;;;;;5.82;53.13;100220.03;5041602;28;20108;-78
2022/03/23 03:14:39;;;;;;;22.15;15.65;;;;;;;5.77;52.95;100212.66;5062808;28;20025;-78
2022/03/23 03:17:07;;;;;;;27.23;16.73;;;;;;;5.68;53.22;100205.00;5061614;28;20035;-78
2022/03/23 03:19:33;;;;;;;24.55;16.08;;;;;;;5.69;53.23;100220.69;5057343;28;20293;-78
2022/03/23 03:21:59;;;;;;;21.95;15.52;;;;;;;5.72;53.19;100219.50;5045526;28;20673;-78
2022/03/23 03:24:24;;;;;;;27.92;17.05;;;;;;;5.73;52.76;100226.44;5061783;28;20037;-78
2022/03/23 03:26:50;;;;;;;22.65;15.90;;;;;;;5.61;52.85;100218.16;5060301;28;20493;-78
2022/03/23 03:29:16;;;;;;;26.60;16.58;;;;;;;5.63;53.18;100220.59;5058963;28;20077;-78
2022/03/23 03:31:41;;;;;;;28.55;16.92;;;;;;;5.66;52.71;100223.69;5058087;28;20032;-78
2022/03/23 03:34:07;;;;;;;26.30;17.23;;;;;;;5.59;53.32;100214.84;5057641;28;20033;-78
2022/03/23 03:36:32;;;;;;;25.55;16.15;;;;;;;5.59;52.96;100214.84;5086911;28;20037;-79
2022/03/23 03:38:58;;;;;;;26.02;16.83;;;;;;;5.56;53.27;100215.22;5022657;28;20043;-78
2022/03/23 03:41:23;;;;;;;27.30;17.38;;;;;;;5.58;53.26;100228.28;5057741;28;20041;-78
2022/03/23 03:43:49;;;;;;;23.73;15.80;;;;;;;5.60;52.66;100231.56;5056443;28;20033;-78
2022/03/23 03:46:15;;;;;;;30.83;18.10;;;;;;;5.50;53.40;100228.38;5055138;28;20036;-78
2022/03/23 03:48:40;;;;;;;26.70;17.70;;;;;;;5.52;53.03;100223.72;5058236;28;20035;-78
2022/03/23 03:51:08;;;;;;;28.33;17.83;;;;;;;5.41;53.09;100217.03;5041408;28;20040;-78
2022/03/23 03:53:34;;;;;;;26.58;17.92;;;;;;;5.46;53.69;100229.75;5061138;28;20582;-78
2022/03/23 03:56:00;;;;;;;26.90;18.38;;;;;;;5.42;53.83;100234.56;5057327;28;20021;-78
2022/03/23 03:58:25;;;;;;;29.92;17.88;;;;;;;5.40;53.31;100215.38;5031211;28;20055;-78
2022/03/23 04:00:50;;;;;;;22.00;16.25;;;;;;;5.43;52.98;100235.38;5040675;28;20029;-78
2022/03/23 04:03:16;;;;;;;26.55;18.48;;;;;;;5.42;53.74;100231.13;5057897;28;20124;-78
2022/03/23 04:05:42;;;;;;;25.30;15.93;;;;;;;5.39;53.67;100218.22;5052798;28;20028;-79
2022/03/23 04:08:08;;;;;;;27.25;18.30;;;;;;;5.38;53.08;100228.00;5053597;28;20395;-78
2022/03/23 04:10:34;;;;;;;27.40;18.88;;;;;;;5.38;53.67;100238.56;5055900;28;20119;-79
2022/03/23 04:13:00;;;;;;;27.52;17.73;;;;;;;5.33;53.10;100235.63;5047848;28;20514;-78
2022/03/23 04:15:26;;;;;;;23.80;16.15;;;;;;;5.31;53.25;100227.06;5053359;28;20029;-78
2022/03/23 04:17:54;;;;;;;23.23;16.38;;;;;;;5.27;52.82;100220.47;5058183;28;20055;-78
2022/03/23 04:20:19;;;;;;;24.63;17.02;;;;;;;5.25;53.33;100220.69;5059981;28;20373;-78
2022/03/23 04:22:44;;;;;;;29.48;17.17;;;;;;;5.25;53.80;100230.44;5062980;28;20020;-79
2022/03/23 04:25:12;;;;;;;27.60;17.08;;;;;;;5.28;53.63;100233.56;5037819;28;20377;-78
2022/03/23 04:27:49;;;;;;;25.15;16.42;;;;;;;5.25;53.59;100228.63;5057183;28;20036;-78
2022/03/23 04:30:17;;;;;;;30.40;17.83;;;;;;;5.17;53.18;100231.34;5056583;28;20078;-78
2022/03/23 04:32:44;;;;;;;27.13;18.17;;;;;;;5.13;53.88;100227.38;5055602;28;20122;-78
2022/03/23 04:35:09;;;;;;;25.75;17.60;;;;;;;5.16;53.45;100229.69;5048267;28;20028;-79
2022/03/23 04:37:35;;;;;;;24.50;17.10;;;;;;;5.16;53.68;100245.56;5057778;28;20040;-78
2022/03/23 04:40:00;;;;;;;23.75;16.90;;;;;;;5.17;53.64;100247.22;5045245;28;20035;-79
2022/03/23 04:42:26;;;;;;;22.52;16.13;;;;;;;5.08;53.13;100235.06;5053132;28;20036;-78
2022/03/23 04:44:51;;;;;;;28.60;17.73;;;;;;;5.15;53.52;100243.94;5045669;28;20480;-78
2022/03/23 04:47:16;;;;;;;26.23;16.35;;;;;;;5.03;53.73;100233.94;5063871;28;20468;-78
2022/03/23 04:49:42;;;;;;;26.95;18.88;;;;;;;5.11;53.19;100253.22;5053666;28;20029;-78
2022/03/23 04:52:07;;;;;;;24.17;17.00;;;;;;;5.01;53.53;100231.50;5061603;28;20079;-78
2022/03/23 04:54:32;;;;;;;28.50;17.88;;;;;;;5.07;53.86;100254.56;5091476;28;20036;-78
2022/03/23 04:56:58;;;;;;;25.23;17.48;;;;;;;5.07;53.55;100257.22;5045741;28;20562;-78
2022/03/23 04:59:23;;;;;;;28.95;17.65;;;;;;;4.93;53.42;100236.03;5058437;28;20107;-78
2022/03/23 05:01:49;;;;;;;26.52;17.73;;;;;;;5.02;54.05;100258.78;5044023;28;20483;-78
2022/03/23 05:04:14;;;;;;;29.50;18.63;;;;;;;4.97;53.68;100247.88;5065168;28;20102;-78
2022/03/23 05:06:39;;;;;;;24.55;15.50;;;;;;;4.97;53.89;100261.13;5046529;28;20025;-79
2022/03/23 05:09:04;;;;;;;27.80;17.75;;;;;;;4.84;54.11;100250.31;5076645;28;20047;-78
2022/03/23 05:11:30;;;;;;;27.05;17.17;;;;;;;4.99;53.98;100267.06;5050252;28;20060;-78
2022/03/23 05:13:55;;;;;;;26.35;17.73;;;;;;;4.92;54.05;100276.69;5073080;28;20028;-78
2022/03/23 05:16:20;;;;;;;25.42;17.52;;;;;;;4.85;53.89;100259.91;5066497;28;20032;-78
2022/03/23 05:18:46;;;;;;;23.58;16.35;;;;;;;4.83;54.31;100264.53;5048886;28;20028;-78
2022/03/23 05:21:11;;;;;;;27.13;17.80;;;;;;;4.90;53.81;100271.59;5062533;28;20112;-78
2022/03/23 05:23:37;;;;;;;27.75;18.63;;;;;;;4.90;53.97;100268.94;5058960;28;21882;-78
2022/03/23 05:26:02;;;;;;;28.58;17.08;;;;;;;4.81;54.38;100264.72;5076190;28;20024;-78
2022/03/23 05:28:27;;;;;;;29.55;17.80;;;;;;;4.82;54.11;100263.72;5043977;28;20082;-78
2022/03/23 05:30:53;;;;;;;24.98;17.13;;;;;;;4.80;53.72;100265.72;5051431;28;20200;-78
2022/03/23 05:33:18;;;;;;;27.15;17.08;;;;;;;4.84;54.05;100276.75;5062266;28;20487;-78
2022/03/23 05:35:43;;;;;;;27.70;17.60;;;;;;;4.81;54.23;100274.47;5043487;28;20091;-78
2022/03/23 05:38:08;;;;;;;25.33;17.25;;;;;;;4.72;54.61;100254.38;5041034;28;20031;-78
2022/03/23 05:40:34;;;;;;;32.47;17.98;;;;;;;4.77;54.42;100263.41;5022515;28;20492;-78
2022/03/23 05:42:59;;;;;;;24.67;17.45;;;;;;;4.73;54.50;100263.94;5057877;28;20056;-78
2022/03/23 05:45:25;;;;;;;25.98;17.17;;;;;;;4.80;54.17;100284.25;5087956;28;20025;-78
2022/03/23 05:47:53;;;;;;;29.90;17.80;;;;;;;4.76;53.93;100274.19;5070785;28;20052;-79
2022/03/23 05:50:18;;;;;;;28.75;18.60;;;;;;;4.76;54.03;100276.81;5068103;28;20110;-78
2022/03/23 05:52:44;;;;;;;27.95;18.13;;;;;;;4.77;54.31;100274.00;5060615;28;20112;-78
2022/03/23 05:55:09;;;;;;;28.60;17.17;;;;;;;4.78;54.35;100288.88;5033600;28;20130;-78
2022/03/23 05:57:37;;;;;;;27.52;17.60;;;;;;;4.73;54.70;100275.34;5063241;28;20037;-78
2022/03/23 06:00:06;;;;;;;27.08;18.38;;;;;;;4.78;54.37;100280.13;5084466;28;20024;-79
2022/03/23 06:02:32;;;;;;;26.85;17.42;;;;;;;4.78;54.38;100285.41;5069829;28;20016;-78
2022/03/23 06:04:57;;;;;;;33.10;18.75;;;;;;;4.68;54.67;100266.28;5061771;28;20036;-78
2022/03/23 06:07:22;;;;;;;29.73;18.20;;;;;;;4.76;54.61;100282.91;5020295;28;20373;-78
2022/03/23 06:09:48;;;;;;;26.05;18.33;;;;;;;4.75;54.71;100283.94;5053036;28;20055;-78
2022/03/23 06:12:14;;;;;;;30.92;18.95;;;;;;;4.77;55.08;100287.22;5046427;28;20037;-79
2022/03/23 06:14:44;;;;;;;25.00;17.70;;;;;;;4.75;54.78;100283.94;5053503;28;20035;-78
2022/03/23 06:17:13;;;;;;;25.65;18.17;;;;;;;4.73;55.16;100285.09;5058322;28;20030;-78
2022/03/23 06:19:38;;;;;;;26.67;17.20;;;;;;;4.74;55.28;100281.47;5046517;28;20017;-78
2022/03/23 06:22:05;;;;;;;27.80;18.42;;;;;;;4.77;55.29;100294.31;5061022;28;20510;-79
2022/03/23 06:24:31;;;;;;;28.67;18.00;;;;;;;4.73;54.89;100285.09;5052028;28;20031;-79
2022/03/23 06:26:56;;;;;;;28.38;17.70;;;;;;;4.69;55.41;100279.34;5049878;28;20488;-78
2022/03/23 06:29:21;;;;;;;28.38;17.80;;;;;;;4.77;55.42;100291.69;5040724;28;20094;-78
2022/03/23 06:31:47;;;;;;;26.80;18.13;;;;;;;4.67;55.71;100276.06;5050070;28;20029;-78
2022/03/23 06:34:12;;;;;;;26.60;17.20;;;;;;;4.69;55.17;100291.75;5043662;28;20497;-78
2022/03/23 06:36:37;;;;;;;29.85;18.55;;;;;;;4.80;55.49;100302.75;5052671;28;20028;-78
2022/03/23 06:39:04;;;;;;;25.00;17.80;;;;;;;4.79;55.29;100302.91;5054281;28;20021;-78
2022/03/23 06:41:29;;;;;;;30.98;17.55;;;;;;;4.80;55.64;100300.09;5060271;28;20040;-78
2022/03/23 06:43:55;;;;;;;29.48;19.70;;;;;;;4.80;55.88;100304.56;5066623;28;20472;-78
2022/03/23 06:46:20;;;;;;;27.08;19.35;;;;;;;4.88;55.86;100307.16;5055429;28;20032;-78
2022/03/23 06:48:47;;;;;;;31.35;18.08;;;;;;;4.82;55.79;100306.03;5054849;28;20047;-78
2022/03/23 06:51:13;;;;;;;30.17;19.52;;;;;;;4.88;55.71;100315.09;5025085;28;20021;-78
2022/03/23 06:53:38;;;;;;;27.00;17.98;;;;;;;4.89;56.46;100311.47;5052180;28;20055;-78
2022/03/23 06:56:04;;;;;;;28.75;18.65;;;;;;;4.82;56.18;100297.28;5051600;28;20068;-78
2022/03/23 06:58:29;;;;;;;30.52;19.65;;;;;;;4.89;55.75;100300.88;5032099;28;20020;-78
2022/03/23 07:00:54;;;;;;;28.48;19.35;;;;;;;4.92;55.95;100309.28;5054650;28;20347;-78
2022/03/23 07:03:20;;;;;;;28.38;18.83;;;;;;;4.93;55.85;100305.63;5049895;28;20419;-78
2022/03/23 07:05:45;;;;;;;27.85;18.00;;;;;;;4.97;56.08;100303.44;5057234;28;20306;-78
2022/03/23 07:10:54;;;;;;;31.17;19.63;;;;;;;5.08;55.94;100310.97;5053872;28;20031;-78
2022/03/23 07:13:20;;;;;;;29.70;18.88;;;;;;;5.05;56.36;100306.03;5054342;28;20032;-78
2022/03/23 07:15:47;;;;;;;30.63;18.92;;;;;;;5.11;56.13;100306.13;5054239;28;20102;-78
2022/03/23 07:18:13;;;;;;;27.23;18.23;;;;;;;5.10;56.28;100307.16;5059223;28;20044;-78
2022/03/23 07:20:38;;;;;;;24.55;17.42;;;;;;;5.11;56.36;100300.03;5057105;28;20032;-78
2022/03/23 07:23:03;;;;;;;29.88;19.33;;;;;;;5.16;56.00;100297.66;5046699;28;20431;-78
2022/03/23 07:25:29;;;;;;;32.45;19.55;;;;;;;5.23;56.21;100303.91;5036527;28;20167;-78
2022/03/23 07:27:54;;;;;;;29.63;17.58;;;;;;;5.24;55.81;100303.72;5056335;28;20060;-78
2022/03/23 07:30:20;;;;;;;30.23;18.73;;;;;;;5.29;56.13;100314.59;5059817;28;20025;-78
2022/03/23 07:32:46;;;;;;;29.13;18.25;;;;;;;5.34;56.07;100308.78;5062601;28;20110;-78
2022/03/23 07:35:11;;;;;;;25.33;17.23;;;;;;;5.28;56.02;100305.03;5063399;28;20031;-78
2022/03/23 07:37:36;;;;;;;28.13;18.45;;;;;;;5.35;56.34;100307.78;5038538;28;20037;-78
2022/03/23 07:40:03;;;;;;;28.70;17.42;;;;;;;5.41;56.29;100308.88;5056477;28;20101;-78
2022/03/23 07:42:28;;;;;;;30.75;18.27;;;;;;;5.46;56.58;100314.47;5053719;28;20048;-78
2022/03/23 07:44:53;;;;;;;29.45;20.67;;;;;;;5.50;56.54;100306.00;5056318;28;20037;-77
2022/03/23 07:47:19;;;;;;;26.67;18.25;;;;;;;5.55;56.03;100305.44;5047384;28;20029;-78
2022/03/23 07:49:44;;;;;;;29.85;19.17;;;;;;;5.60;56.68;100311.00;5043091;28;20033;-78
2022/03/23 07:52:10;;;;;;;27.50;18.42;;;;;;;5.61;56.60;100300.25;5049906;28;20024;-78
2022/03/23 07:54:35;;;;;;;25.33;17.55;;;;;;;5.63;56.22;100314.13;5061375;28;20028;-78
2022/03/23 07:57:01;;;;;;;28.00;18.52;;;;;;;5.66;56.66;100297.03;5060418;28;20020;-78
2022/03/23 07:59:26;;;;;;;32.25;19.38;;;;;;;5.69;56.27;100308.09;5044576;28;20503;-78
2022/03/23 08:01:52;;;;;;;29.88;17.83;;;;;;;5.78;56.95;100314.97;5061451;28;20043;-77
2022/03/23 08:04:17;;;;;;;29.85;19.42;;;;;;;5.80;55.99;100312.97;5045346;28;20089;-78
2022/03/23 08:06:43;;;;;;;29.50;18.42;;;;;;;5.85;56.39;100310.59;5026949;28;20029;-78
2022/03/23 08:09:09;;;;;;;26.77;17.67;;;;;;;5.93;56.09;100323.78;5030387;28;20399;-78
2022/03/23 08:11:35;;;;;;;32.92;18.60;;;;;;;5.97;56.02;100319.75;5057190;28;20044;-79
2022/03/23 08:14:01;;;;;;;26.95;18.42;;;;;;;5.98;56.03;100313.44;5054194;28;20492;-78
2022/03/23 08:16:27;;;;;;;28.85;18.13;;;;;;;5.98;56.25;100309.97;5068872;28;20040;-78
2022/03/23 08:18:52;;;;;;;24.73;17.52;;;;;;;6.05;56.30;100314.34;5059345;28;20032;-78
2022/03/23 08:21:19;;;;;;;29.83;17.73;;;;;;;6.15;56.30;100321.22;5057408;28;20044;-78
2022/03/23 08:23:45;;;;;;;29.77;19.02;;;;;;;6.18;56.27;100323.50;5050555;28;20033;-78
2022/03/23 08:26:14;;;;;;;25.67;18.00;;;;;;;6.23;56.58;100318.44;5037058;28;20024;-79
2022/03/23 08:28:39;;;;;;;28.02;18.27;;;;;;;6.21;55.97;100301.91;5057135;28;20044;-78
2022/03/23 08:31:04;;;;;;;27.83;18.35;;;;;;;6.25;55.92;100308.47;5057229;28;20117;-78
2022/03/23 08:33:34;;;;;;;30.67;18.13;;;;;;;6.35;56.74;100311.69;5045058;28;20028;-78
2022/03/23 08:36:00;;;;;;;28.17;18.83;;;;;;;6.37;56.35;100299.06;5060557;28;20052;-78
2022/03/23 08:38:26;;;;;;;25.77;17.73;;;;;;;6.39;56.58;100307.66;5054985;28;20791;-78
2022/03/23 08:40:51;;;;;;;26.08;18.33;;;;;;;6.51;56.55;100316.78;5058188;28;20055;-78
2022/03/23 08:43:16;;;;;;;27.77;18.77;;;;;;;6.54;56.22;100313.75;5056921;28;20040;-78
2022/03/23 08:45:42;;;;;;;29.15;19.92;;;;;;;6.58;56.93;100318.50;5061259;28;20388;-78
2022/03/23 08:48:09;;;;;;;25.35;17.25;;;;;;;6.65;56.54;100321.22;5063948;28;20025;-78
2022/03/23 08:50:34;;;;;;;27.25;18.25;;;;;;;6.69;56.19;100312.72;5059346;28;20624;-78
2022/03/23 08:53:00;;;;;;;24.60;18.13;;;;;;;6.69;56.64;100310.06;5057400;28;20029;-78
2022/03/23 08:55:26;;;;;;;29.15;18.52;;;;;;;6.78;56.21;100314.25;5054832;28;20024;-78
2022/03/23 08:57:51;;;;;;;28.40;19.08;;;;;;;6.85;56.33;100314.31;5041481;28;20480;-79
2022/03/23 09:00:17;;;;;;;29.73;17.98;;;;;;;6.80;56.75;100306.06;5055956;28;20787;-78
2022/03/23 09:02:43;;;;;;;26.27;18.25;;;;;;;6.93;56.88;100314.19;5054464;28;20123;-78
2022/03/23 09:05:14;;;;;;;28.73;19.23;;;;;;;6.94;56.51;100307.88;5037866;28;20090;-78
2022/03/23 09:07:42;;;;;;;28.13;18.65;;;;;;;7.01;56.87;100308.72;5060653;28;20032;-78
2022/03/23 09:10:10;;;;;;;29.02;18.85;;;;;;;7.09;56.70;100313.94;5058576;28;20028;-78
2022/03/23 09:12:36;;;;;;;26.63;17.50;;;;;;;7.12;57.01;100312.75;5042058;28;20024;-78
2022/03/23 09:15:03;;;;;;;26.63;17.90;;;;;;;7.22;56.91;100308.75;5063247;28;20025;-78
2022/03/23 09:17:28;;;;;;;30.98;19.35;;;;;;;7.23;56.89;100304.28;5052796;28;20060;-78
2022/03/23 09:19:55;;;;;;;27.40;17.88;;;;;;;7.31;56.43;100307.59;5042717;28;20511;-78
2022/03/23 09:22:21;;;;;;;28.95;18.83;;;;;;;7.39;56.80;100309.28;5061557;28;20029;-78
2022/03/23 09:24:46;;;;;;;26.25;18.77;;;;;;;7.35;57.27;100294.75;5057156;28;20037;-78
2022/03/23 09:27:11;;;;;;;26.60;18.92;;;;;;;7.40;56.85;100295.00;5045932;28;20067;-78
2022/03/23 09:29:37;;;;;;;27.65;18.25;;;;;;;7.53;56.38;100295.91;5038676;28;20488;-78
2022/03/23 09:32:09;;;;;;;30.10;19.08;;;;;;;7.58;57.15;100292.66;5033548;28;20124;-78
2022/03/23 09:34:34;;;;;;;27.38;17.70;;;;;;;7.66;56.75;100291.72;5054151;28;20505;-78
2022/03/23 09:39:43;;;;;;;30.45;20.27;;;;;;;7.76;56.85;100293.00;5056549;28;20047;-78
2022/03/23 09:42:09;;;;;;;34.17;20.23;;;;;;;7.81;56.87;100287.09;5060041;28;20688;-78
2022/03/23 09:44:36;;;;;;;30.95;21.55;;;;;;;7.92;56.88;100290.06;5056109;28;20032;-78
2022/03/23 09:47:01;;;;;;;28.67;18.73;;;;;;;7.94;56.30;100282.69;5051994;28;20052;-78
2022/03/23 09:49:27;;;;;;;25.95;18.88;;;;;;;8.10;56.19;100284.22;5059587;28;20505;-78
2022/03/23 09:51:53;;;;;;;33.85;20.17;;;;;;;8.20;56.34;100280.16;5059433;28;20032;-78
2022/03/23 09:54:21;;;;;;;27.95;20.38;;;;;;;8.28;57.02;100285.34;5058386;28;20404;-78
2022/03/23 09:56:46;;;;;;;28.20;18.52;;;;;;;8.31;56.29;100278.81;5082021;28;20145;-78
2022/03/23 09:59:11;;;;;;;29.98;19.92;;;;;;;8.46;56.29;100294.63;5046242;28;20076;-78
2022/03/23 10:02:00;;;;;;;28.88;19.17;;;;;;;8.48;56.07;100276.59;5089320;28;20166;-78
2022/03/23 10:05:09;;;;;;;31.65;19.10;;;;;;;8.61;55.87;100285.47;5058899;28;20503;-78
2022/03/23 10:07:49;;;;;;;32.63;20.23;;;;;;;8.75;56.43;100286.31;5073458;28;20024;-78
2022/03/23 10:10:29;;;;;;;27.48;18.85;;;;;;;8.86;55.42;100281.22;5060247;28;20701;-78
2022/03/23 10:13:26;;;;;;;31.23;19.77;;;;;;;8.96;55.52;100289.63;5056089;28;20503;-78
2022/03/23 10:16:39;;;;;;;28.30;18.73;;;;;;;9.08;55.11;100287.22;5054403;28;20442;-78
2022/03/23 10:19:04;;;;;;;27.88;19.88;;;;;;;9.19;56.07;100275.13;5059468;28;20311;-78
2022/03/23 10:21:36;;;;;;;29.67;20.35;;;;;;;9.25;54.58;100274.28;5061208;28;20482;-78
2022/03/23 10:24:02;;;;;;;27.10;19.00;;;;;;;9.39;54.83;100275.94;5055268;28;20021;-78
2022/03/23 10:26:30;;;;;;;28.80;20.05;;;;;;;9.45;54.37;100269.78;5059397;28;20391;-78
2022/03/23 10:28:57;;;;;;;26.73;18.80;;;;;;;9.60;53.65;100278.38;5056564;28;20033;-78
2022/03/23 10:31:24;;;;;;;28.73;19.20;;;;;;;9.69;53.77;100272.63;5092297;28;20036;-78
2022/03/23 10:34:07;;;;;;;24.52;18.35;;;;;;;9.77;53.64;100268.91;5061065;28;20032;-78
2022/03/23 10:36:49;;;;;;;28.48;18.70;;;;;;;9.85;53.50;100274.00;5060291;28;20025;-78
2022/03/23 10:39:16;;;;;;;27.17;19.30;;;;;;;9.91;52.86;100267.88;5058137;28;20028;-78
2022/03/23 10:41:42;;;;;;;23.40;17.65;;;;;;;9.93;52.48;100279.16;5065120;28;20028;-77
2022/03/23 10:44:18;;;;;;;29.58;18.52;;;;;;;9.93;52.63;100264.97;5060541;28;20503;-78
2022/03/23 10:46:43;;;;;;;25.10;17.42;;;;;;;9.95;52.35;100266.41;5063403;28;20471;-78
2022/03/23 10:49:10;;;;;;;25.10;18.15;;;;;;;9.99;52.50;100266.81;5065614;28;20100;-78
2022/03/23 10:51:37;;;;;;;26.77;18.17;;;;;;;10.03;52.94;100274.19;5062937;28;20036;-78
2022/03/23 10:54:23;;;;;;;28.30;18.17;;;;;;;10.00;52.25;100253.28;5057566;28;20032;-78
2022/03/23 10:56:49;;;;;;;27.58;18.42;;;;;;;10.08;52.88;100260.22;5031912;28;20391;-78
2022/03/23 10:59:22;;;;;;;24.83;17.63;;;;;;;10.12;52.79;100262.28;5062404;28;20036;-78
2022/03/23 11:02:08;;;;;;;25.13;18.27;;;;;;;10.10;52.57;100253.66;5043606;28;20040;-77
2022/03/23 11:04:56;;;;;;;25.48;19.00;;;;;;;10.18;52.00;100257.94;5063554;28;20415;-78
2022/03/23 11:07:35;;;;;;;23.70;16.98;;;;;;;10.25;52.19;100248.06;5068720;28;20036;-77
2022/03/23 11:15:47;;;;;;;23.13;17.70;;;;;;;10.53;51.69;100246.69;5061672;28;20043;-78
2022/03/23 11:18:17;;;;;;;24.88;17.45;;;;;;;10.69;51.42;100236.53;5051254;28;20025;-78
2022/03/23 11:20:51;;;;;;;24.33;17.02;;;;;;;10.87;50.69;100245.47;5055008;28;20063;-77
2022/03/23 11:23:18;;;;;;;24.33;16.55;;;;;;;10.99;51.10;100249.06;5066565;28;20107;-78
2022/03/23 11:25:45;;;;;;;21.20;16.13;;;;;;;11.12;50.64;100248.16;5067952;28;20107;-78
2022/03/23 11:28:12;;;;;;;21.98;17.27;;;;;;;11.26;50.40;100247.03;5060430;28;20036;-78
2022/03/23 11:30:38;;;;;;;23.02;17.40;;;;;;;11.35;50.61;100236.88;5066585;28;20025;-78
2022/03/23 11:33:07;;;;;;;21.77;16.38;;;;;;;11.44;49.75;100240.91;5044398;28;20592;-78
2022/03/23 11:35:34;;;;;;;27.08;17.98;;;;;;;11.56;49.12;100234.59;5064780;28;20037;-78